createdAt,value
2023-06-14T00:00:17.072Z,1341.00
2023-06-14T00:01:16.796Z,1325.00
2023-06-14T00:02:16.821Z,1349.00
2023-06-14T00:03:16.790Z,1319.00
2023-06-14T00:04:16.784Z,1348.00
2023-06-14T00:05:16.754Z,1352.00
2023-06-14T00:06:16.749Z,1343.00
2023-06-14T00:07:16.757Z,1356.00
2023-06-14T00:08:16.727Z,1339.00
2023-06-14T00:09:16.716Z,1372.00
2023-06-14T00:10:17.004Z,1338.00
2023-06-14T00:11:16.730Z,1336.00
2023-06-14T00:12:16.692Z,1333.00
2023-06-14T00:13:16.706Z,1326.00
2023-06-14T00:14:16.684Z,1318.00
2023-06-14T00:15:16.691Z,1326.00
2023-06-14T00:16:16.709Z,1305.00
2023-06-14T00:17:16.708Z,1287.00
2023-06-14T00:18:16.664Z,1290.00
2023-06-14T00:19:16.664Z,1321.00
2023-06-14T00:20:16.885Z,1304.00
2023-06-14T00:21:16.671Z,1320.00
2023-06-14T00:22:16.626Z,1343.00
2023-06-14T00:23:16.614Z,1313.00
2023-06-14T00:24:16.754Z,1298.00
2023-06-14T00:25:28.872Z,1295.00
2023-06-14T00:26:17.634Z,1296.00
2023-06-14T00:27:16.625Z,1295.00
2023-06-14T00:28:16.598Z,1295.00
2023-06-14T00:29:16.602Z,1299.00
2023-06-14T00:30:16.729Z,1307.00
2023-06-14T00:31:16.578Z,1298.00
2023-06-14T00:32:16.657Z,1297.00
2023-06-14T00:33:16.661Z,1314.00
2023-06-14T00:34:16.583Z,1316.00
2023-06-14T00:35:16.552Z,1319.00
2023-06-14T00:36:16.554Z,1299.00
2023-06-14T00:37:16.538Z,1310.00
2023-06-14T00:38:16.570Z,1295.00
2023-06-14T00:39:16.550Z,1299.00
2023-06-14T00:40:16.714Z,1290.00
2023-06-14T00:41:16.531Z,1323.00
2023-06-14T00:42:16.528Z,1297.00
2023-06-14T00:43:16.499Z,1320.00
2023-06-14T00:44:16.508Z,1305.00
2023-06-14T00:45:16.507Z,1299.00
2023-06-14T00:46:16.554Z,1282.00
2023-06-14T00:47:16.473Z,1290.00
2023-06-14T00:48:16.495Z,1270.00
2023-06-14T00:49:16.457Z,1303.00
2023-06-14T00:50:16.563Z,1330.00
2023-06-14T00:51:16.467Z,1326.00
2023-06-14T00:52:16.457Z,1316.00
2023-06-14T00:53:16.432Z,1314.00
2023-06-14T00:54:16.432Z,1280.00
2023-06-14T00:55:16.458Z,1312.00
2023-06-14T00:56:16.457Z,1273.00
2023-06-14T00:57:16.492Z,1288.00
2023-06-14T00:58:16.504Z,1260.00
2023-06-14T00:59:16.556Z,1262.00
2023-06-14T01:00:16.823Z,1278.00
2023-06-14T01:01:16.540Z,1273.00
2023-06-14T01:02:16.588Z,1269.00
2023-06-14T01:03:16.610Z,1283.00
2023-06-14T01:04:16.624Z,1258.00
2023-06-14T01:05:16.570Z,1294.00
2023-06-14T01:06:16.615Z,1278.00
2023-06-14T01:07:16.614Z,1296.00
2023-06-14T01:08:16.638Z,1260.00
2023-06-14T01:09:16.645Z,1286.00
2023-06-14T01:10:16.938Z,1303.00
2023-06-14T01:11:16.693Z,1304.00
2023-06-14T01:12:16.683Z,1311.00
2023-06-14T01:13:16.688Z,1308.00
2023-06-14T01:14:16.747Z,1294.00
2023-06-14T01:15:16.751Z,1290.00
2023-06-14T01:16:16.790Z,1299.00
2023-06-14T01:17:16.771Z,1280.00
2023-06-14T01:18:16.766Z,1319.00
2023-06-14T01:19:16.797Z,1341.00
2023-06-14T01:20:16.816Z,1331.00
2023-06-14T01:21:16.840Z,1349.00
2023-06-14T01:22:16.847Z,1370.00
2023-06-14T01:23:16.867Z,1386.00
2023-06-14T01:24:16.950Z,1357.00
2023-06-14T01:25:16.914Z,1365.00
2023-06-14T01:26:16.924Z,1415.00
2023-06-14T01:27:16.976Z,1408.00
2023-06-14T01:28:16.975Z,1372.00
2023-06-14T01:29:16.979Z,1392.00
2023-06-14T01:30:17.275Z,1414.00
2023-06-14T01:31:17.012Z,1401.00
2023-06-14T01:32:17.017Z,1384.00
2023-06-14T01:33:17.042Z,1373.00
2023-06-14T01:34:17.072Z,1401.00
2023-06-14T01:35:17.222Z,1366.00
2023-06-14T01:36:17.096Z,1352.00
2023-06-14T01:37:17.101Z,1364.00
2023-06-14T01:38:17.122Z,1354.00
2023-06-14T01:39:17.150Z,1323.00
2023-06-14T01:40:17.547Z,1361.00
2023-06-14T01:41:17.174Z,1335.00
2023-06-14T01:42:17.189Z,1328.00
2023-06-14T01:43:17.190Z,1354.00
2023-06-14T01:44:17.218Z,1361.00
2023-06-14T01:45:17.230Z,1379.00
2023-06-14T01:46:17.284Z,1367.00
2023-06-14T01:47:17.272Z,1371.00
2023-06-14T01:48:17.288Z,1369.00
2023-06-14T01:49:17.309Z,1372.00
2023-06-14T01:50:17.559Z,1383.00
2023-06-14T01:51:17.326Z,1394.00
2023-06-14T01:52:17.360Z,1404.00
2023-06-14T01:53:17.381Z,1381.00
2023-06-14T01:54:17.405Z,1351.00
2023-06-14T01:55:17.437Z,1376.00
2023-06-14T01:56:17.445Z,1371.00
2023-06-14T01:57:17.462Z,1384.00
2023-06-14T01:58:17.489Z,1380.00
2023-06-14T01:59:17.495Z,1372.00
2023-06-14T02:00:17.735Z,1398.00
2023-06-14T02:01:17.650Z,1381.00
2023-06-14T02:02:17.574Z,1389.00
2023-06-14T02:03:17.577Z,1404.00
2023-06-14T02:04:17.600Z,1419.00
2023-06-14T02:05:17.698Z,1424.00
2023-06-14T02:06:17.657Z,1382.00
2023-06-14T02:07:17.750Z,1395.00
2023-06-14T02:08:17.681Z,1394.00
2023-06-14T02:09:17.700Z,1366.00
2023-06-14T02:10:17.899Z,1374.00
2023-06-14T02:11:17.770Z,1385.00
2023-06-14T02:12:17.788Z,1354.00
2023-06-14T02:13:17.823Z,1384.00
2023-06-14T02:14:17.830Z,1401.00
2023-06-14T02:15:17.895Z,1410.00
2023-06-14T02:16:17.907Z,1402.00
2023-06-14T02:17:17.918Z,1412.00
2023-06-14T02:18:17.941Z,1409.00
2023-06-14T02:19:17.968Z,1410.00
2023-06-14T02:20:18.131Z,1425.00
2023-06-14T02:21:18.025Z,1409.00
2023-06-14T02:22:18.050Z,1378.00
2023-06-14T02:23:18.088Z,1417.00
2023-06-14T02:24:18.152Z,1413.00
2023-06-14T02:25:18.153Z,1401.00
2023-06-14T02:26:18.160Z,1424.00
2023-06-14T02:27:18.177Z,1440.00
2023-06-14T02:28:18.207Z,1444.00
2023-06-14T02:29:18.234Z,1439.00
2023-06-14T02:30:18.533Z,1417.00
2023-06-14T02:31:18.321Z,1440.00
2023-06-14T02:32:18.315Z,1470.00
2023-06-14T02:33:18.358Z,1432.00
2023-06-14T02:34:18.388Z,1460.00
2023-06-14T02:35:18.432Z,1436.00
2023-06-14T02:36:18.462Z,1462.00
2023-06-14T02:37:18.525Z,1452.00
2023-06-14T02:38:18.523Z,1479.00
2023-06-14T02:39:18.535Z,1463.00
2023-06-14T02:40:18.830Z,1490.00
2023-06-14T02:41:18.604Z,1484.00
2023-06-14T02:42:18.633Z,1462.00
2023-06-14T02:43:18.686Z,1468.00
2023-06-14T02:44:18.690Z,1489.00
2023-06-14T02:45:18.729Z,1495.00
2023-06-14T02:46:18.761Z,1477.00
2023-06-14T02:47:18.828Z,1484.00
2023-06-14T02:48:18.880Z,1463.00
2023-06-14T02:49:18.870Z,1484.00
2023-06-14T02:50:18.899Z,1485.00
2023-06-14T02:51:18.915Z,1480.00
2023-06-14T02:52:18.943Z,1487.00
2023-06-14T02:53:19.028Z,1503.00
2023-06-14T02:54:19.027Z,1484.00
2023-06-14T02:55:19.042Z,1474.00
2023-06-14T02:56:19.088Z,1497.00
2023-06-14T02:57:19.121Z,1494.00
2023-06-14T02:58:19.166Z,1481.00
2023-06-14T02:59:19.176Z,1504.00
2023-06-14T03:00:19.527Z,1456.00
2023-06-14T03:01:19.339Z,1476.00
2023-06-14T03:02:19.312Z,1487.00
2023-06-14T03:03:19.444Z,1486.00
2023-06-14T03:04:19.387Z,1484.00
2023-06-14T03:05:19.427Z,1483.00
2023-06-14T03:06:19.451Z,1488.00
2023-06-14T03:07:19.493Z,1507.00
2023-06-14T03:08:19.557Z,1505.00
2023-06-14T03:09:19.585Z,1504.00
2023-06-14T03:10:19.653Z,1499.00
2023-06-14T03:11:19.657Z,1477.00
2023-06-14T03:12:19.692Z,1498.00
2023-06-14T03:13:19.731Z,1520.00
2023-06-14T03:14:19.779Z,1514.00
2023-06-14T03:15:19.800Z,1532.00
2023-06-14T03:16:19.878Z,1512.00
2023-06-14T03:17:19.878Z,1508.00
2023-06-14T03:18:19.927Z,1517.00
2023-06-14T03:19:19.961Z,1521.00
2023-06-14T03:20:19.997Z,1510.00
2023-06-14T03:21:20.033Z,1528.00
2023-06-14T03:22:20.077Z,1529.00
2023-06-14T03:23:20.132Z,1529.00
2023-06-14T03:24:20.179Z,1528.00
2023-06-14T03:25:20.202Z,1537.00
2023-06-14T03:26:20.247Z,1539.00
2023-06-14T03:27:20.260Z,1556.00
2023-06-14T03:28:20.302Z,1535.00
2023-06-14T03:29:20.376Z,1558.00
2023-06-14T03:30:20.406Z,1564.00
2023-06-14T03:31:20.631Z,1563.00
2023-06-14T03:32:20.461Z,1529.00
2023-06-14T03:33:20.484Z,1560.00
2023-06-14T03:34:20.525Z,1535.00
2023-06-14T03:35:20.581Z,1531.00
2023-06-14T03:36:20.621Z,1542.00
2023-06-14T03:37:20.646Z,1549.00
2023-06-14T03:38:20.700Z,1570.00
2023-06-14T03:39:20.733Z,1574.00
2023-06-14T03:40:20.776Z,1574.00
2023-06-14T03:41:20.821Z,1589.00
2023-06-14T03:42:20.865Z,1596.00
2023-06-14T03:43:20.942Z,1587.00
2023-06-14T03:44:20.953Z,1588.00
2023-06-14T03:45:20.983Z,1588.00
2023-06-14T03:46:21.034Z,1592.00
2023-06-14T03:47:21.162Z,1586.00
2023-06-14T03:48:21.194Z,1582.00
2023-06-14T03:49:21.155Z,1589.00
2023-06-14T03:50:21.171Z,1588.00
2023-06-14T03:51:21.229Z,1588.00
2023-06-14T03:52:21.258Z,1576.00
2023-06-14T03:53:21.283Z,1569.00
2023-06-14T03:56:21.322Z,1610.00
2023-06-14T03:57:21.305Z,1612.00
2023-06-14T03:58:21.286Z,1605.00
2023-06-14T03:59:21.307Z,1621.00
2023-06-14T04:00:21.289Z,1626.00
2023-06-14T04:01:21.270Z,1629.00
2023-06-14T04:02:21.394Z,1625.00
2023-06-14T04:03:21.341Z,1612.00
2023-06-14T04:04:21.260Z,1621.00
2023-06-14T04:05:21.275Z,1615.00
2023-06-14T04:06:21.248Z,1633.00
2023-06-14T04:07:21.250Z,1602.00
2023-06-14T04:08:21.229Z,1619.00
2023-06-14T04:09:21.231Z,1620.00
2023-06-14T04:10:21.239Z,1618.00
2023-06-14T04:11:21.211Z,1599.00
2023-06-14T04:12:21.210Z,1621.00
2023-06-14T04:13:21.202Z,1615.00
2023-06-14T04:14:21.228Z,1617.00
2023-06-14T04:15:22.123Z,1624.00
2023-06-14T04:16:21.201Z,1630.00
2023-06-14T04:17:21.197Z,1627.00
2023-06-14T04:18:23.964Z,1633.00
2023-06-14T04:19:21.174Z,1631.00
2023-06-14T04:20:21.161Z,1633.00
2023-06-14T04:21:21.165Z,1635.00
2023-06-14T04:22:21.137Z,1635.00
2023-06-14T04:23:21.125Z,1631.00
2023-06-14T04:24:21.144Z,1653.00
2023-06-14T04:25:23.978Z,1648.00
2023-06-14T04:26:21.130Z,1649.00
2023-06-14T04:27:21.102Z,1645.00
2023-06-14T04:28:21.114Z,1627.00
2023-06-14T04:29:21.093Z,1604.00
2023-06-14T04:30:21.076Z,1624.00
2023-06-14T04:31:21.076Z,1631.00
2023-06-14T04:32:21.122Z,1639.00
2023-06-14T04:33:21.153Z,1633.00
2023-06-14T04:34:21.060Z,1640.00
2023-06-14T04:35:21.038Z,1635.00
2023-06-14T04:36:21.068Z,1644.00
2023-06-14T04:37:21.029Z,1625.00
2023-06-14T04:38:21.032Z,1663.00
2023-06-14T04:39:21.020Z,1658.00
2023-06-14T04:40:21.016Z,1659.00
2023-06-14T04:41:21.023Z,1675.00
2023-06-14T04:42:21.014Z,1672.00
2023-06-14T04:43:21.021Z,1643.00
2023-06-14T04:44:20.993Z,1605.00
2023-06-14T04:45:21.000Z,1532.00
2023-06-14T04:46:21.013Z,1505.00
2023-06-14T04:47:20.981Z,1490.00
2023-06-14T04:48:20.972Z,1488.00
2023-06-14T04:49:20.986Z,1491.00
2023-06-14T04:50:20.960Z,1517.00
2023-06-14T04:51:20.945Z,1543.00
2023-06-14T04:52:20.954Z,1568.00
2023-06-14T04:53:20.931Z,1547.00
2023-06-14T04:54:20.944Z,1578.00
2023-06-14T04:55:20.947Z,1574.00
2023-06-14T04:56:20.915Z,1598.00
2023-06-14T04:57:20.918Z,1602.00
2023-06-14T04:58:20.907Z,1593.00
2023-06-14T04:59:20.903Z,1580.00
2023-06-14T05:00:20.890Z,1565.00
2023-06-14T05:01:20.969Z,1580.00
2023-06-14T05:02:20.952Z,1590.00
2023-06-14T05:03:20.964Z,1585.00
2023-06-14T05:04:20.872Z,1575.00
2023-06-14T05:05:20.874Z,1582.00
2023-06-14T05:06:20.886Z,1587.00
2023-06-14T05:07:20.847Z,1607.00
2023-06-14T05:08:20.838Z,1609.00
2023-06-14T05:09:20.848Z,1604.00
2023-06-14T05:10:20.833Z,1618.00
2023-06-14T05:11:20.809Z,1621.00
2023-06-14T05:12:20.813Z,1636.00
2023-06-14T05:13:20.808Z,1609.00
2023-06-14T05:14:20.790Z,1615.00
2023-06-14T05:15:20.791Z,1583.00
2023-06-14T05:16:20.835Z,1597.00
2023-06-14T05:17:20.807Z,1595.00
2023-06-14T05:18:20.777Z,1614.00
2023-06-14T05:19:20.764Z,1619.00
2023-06-14T05:20:20.745Z,1603.00
2023-06-14T05:21:20.754Z,1613.00
2023-06-14T05:22:20.745Z,1641.00
2023-06-14T05:23:20.727Z,1649.00
2023-06-14T05:24:20.749Z,1605.00
2023-06-14T05:25:20.735Z,1577.00
2023-06-14T05:26:20.737Z,1633.00
2023-06-14T05:27:20.802Z,1502.00
2023-06-14T05:28:20.702Z,1407.00
2023-06-14T05:29:20.684Z,1283.00
2023-06-14T05:30:20.688Z,1187.00
2023-06-14T05:31:20.722Z,1150.00
2023-06-14T05:32:20.672Z,1109.00
2023-06-14T05:33:20.831Z,1076.00
2023-06-14T05:34:20.657Z,1055.00
2023-06-14T05:35:20.637Z,747.00
2023-06-14T05:36:20.637Z,657.00
2023-06-14T05:37:20.639Z,595.00
2023-06-14T05:38:20.631Z,537.00
2023-06-14T05:39:20.642Z,505.00
2023-06-14T05:40:20.633Z,500.00
2023-06-14T05:41:20.643Z,532.00
2023-06-14T05:42:20.591Z,562.00
2023-06-14T05:43:21.543Z,581.00
2023-06-14T05:44:20.597Z,679.00
2023-06-14T05:45:20.583Z,813.00
2023-06-14T05:46:20.647Z,930.00
2023-06-14T05:47:20.578Z,1034.00
2023-06-14T05:48:20.597Z,1115.00
2023-06-14T05:49:20.550Z,1247.00
2023-06-14T05:50:20.567Z,1361.00
2023-06-14T05:51:20.595Z,1467.00
2023-06-14T05:52:20.555Z,1527.00
2023-06-14T05:53:20.557Z,1577.00
2023-06-14T05:54:20.516Z,1539.00
2023-06-14T05:55:20.518Z,1431.00
2023-06-14T05:56:20.513Z,1464.00
2023-06-14T05:57:20.520Z,1394.00
2023-06-14T05:58:20.508Z,1540.00
2023-06-14T05:59:20.533Z,1409.00
2023-06-14T06:00:20.518Z,1355.00
2023-06-14T06:01:20.472Z,1399.00
2023-06-14T06:02:20.595Z,1329.00
2023-06-14T06:03:20.733Z,1352.00
2023-06-14T06:04:20.726Z,1302.00
2023-06-14T06:05:20.684Z,1297.00
2023-06-14T06:06:20.735Z,1300.00
2023-06-14T06:07:20.745Z,1249.00
2023-06-14T06:08:20.786Z,1228.00
2023-06-14T06:09:20.822Z,1163.00
2023-06-14T06:10:20.877Z,1176.00
2023-06-14T06:11:20.956Z,1265.00
2023-06-14T06:12:20.977Z,1251.00
2023-06-14T06:13:21.017Z,1291.00
2023-06-14T06:14:21.066Z,1294.00
2023-06-14T06:15:21.087Z,1270.00
2023-06-14T06:16:21.191Z,1205.00
2023-06-14T06:17:21.205Z,1298.00
2023-06-14T06:18:21.288Z,1253.00
2023-06-14T06:19:21.316Z,1194.00
2023-06-14T06:20:21.307Z,1298.00
2023-06-14T06:21:21.661Z,1307.00
2023-06-14T06:22:21.644Z,1174.00
2023-06-14T06:23:21.380Z,1125.00
2023-06-14T06:24:21.449Z,1122.00
2023-06-14T06:25:21.454Z,1108.00
2023-06-14T06:26:21.474Z,1198.00
2023-06-14T06:27:21.513Z,1173.00
2023-06-14T06:28:21.560Z,1226.00
2023-06-14T06:29:21.552Z,1376.00
2023-06-14T06:30:21.615Z,1373.00
2023-06-14T06:31:21.652Z,1440.00
2023-06-14T06:32:21.654Z,1340.00
2023-06-14T06:33:21.667Z,1163.00
2023-06-14T06:34:21.658Z,1315.00
2023-06-14T06:35:21.680Z,1159.00
2023-06-14T06:36:21.713Z,1116.00
2023-06-14T06:37:21.771Z,1016.00
2023-06-14T06:38:21.755Z,976.00
2023-06-14T06:39:21.768Z,886.00
2023-06-14T06:40:21.850Z,901.00
2023-06-14T06:41:22.148Z,962.00
2023-06-14T06:42:21.870Z,1033.00
2023-06-14T06:43:21.887Z,975.00
2023-06-14T06:44:21.922Z,1067.00
2023-06-14T06:45:23.637Z,992.00
2023-06-14T06:46:22.183Z,908.00
2023-06-14T06:47:21.942Z,832.00
2023-06-14T06:48:21.963Z,906.00
2023-06-14T06:49:21.911Z,963.00
2023-06-14T06:50:21.903Z,844.00
2023-06-14T06:51:21.910Z,832.00
2023-06-14T06:52:21.899Z,849.00
2023-06-14T06:53:34.812Z,903.00
2023-06-14T06:54:22.869Z,904.00
2023-06-14T06:55:21.881Z,913.00
2023-06-14T06:56:21.870Z,906.00
2023-06-14T06:57:21.854Z,795.00
2023-06-14T06:58:21.863Z,754.00
2023-06-14T06:59:21.836Z,765.00
2023-06-14T07:00:21.854Z,845.00
2023-06-14T07:01:21.919Z,690.00
2023-06-14T07:02:21.917Z,634.00
2023-06-14T07:03:21.812Z,616.00
2023-06-14T07:04:21.839Z,598.00
2023-06-14T07:05:21.847Z,618.00
2023-06-14T07:06:21.817Z,645.00
2023-06-14T07:07:22.144Z,670.00
2023-06-14T07:08:21.777Z,758.00
2023-06-14T07:09:21.772Z,898.00
2023-06-14T07:10:21.763Z,957.00
2023-06-14T07:11:21.770Z,1072.00
2023-06-14T07:12:21.790Z,988.00
2023-06-14T07:13:21.767Z,1059.00
2023-06-14T07:14:21.749Z,1215.00
2023-06-14T07:15:21.764Z,1233.00
2023-06-14T07:16:21.763Z,1216.00
2023-06-14T07:17:21.759Z,1018.00
2023-06-14T07:18:21.728Z,979.00
2023-06-14T07:19:21.744Z,1039.00
2023-06-14T07:20:21.757Z,959.00
2023-06-14T07:21:21.737Z,1002.00
2023-06-14T07:22:21.745Z,1083.00
2023-06-14T07:23:21.760Z,818.00
2023-06-14T07:24:21.850Z,1054.00
2023-06-14T07:25:21.754Z,1164.00
2023-06-14T07:26:21.746Z,1199.00
2023-06-14T07:27:22.155Z,1183.00
2023-06-14T07:28:21.802Z,1244.00
2023-06-14T07:29:21.844Z,1295.00
2023-06-14T07:30:21.877Z,1128.00
2023-06-14T07:31:21.866Z,721.00
2023-06-14T07:32:21.982Z,593.00
2023-06-14T07:33:22.029Z,502.00
2023-06-14T07:34:21.930Z,434.00
2023-06-14T07:35:21.955Z,407.00
2023-06-14T07:36:21.995Z,400.00
2023-06-14T07:37:22.048Z,400.00
2023-06-14T07:38:22.116Z,400.00
2023-06-14T07:39:22.097Z,400.00
2023-06-14T07:40:22.097Z,400.00
2023-06-14T07:41:23.113Z,400.00
2023-06-14T07:42:22.142Z,400.00
2023-06-14T07:43:23.005Z,400.00
2023-06-14T07:44:22.210Z,421.00
2023-06-14T07:45:22.277Z,457.00
2023-06-14T07:46:22.308Z,497.00
2023-06-14T07:47:22.483Z,500.00
2023-06-14T07:48:22.503Z,509.00
2023-06-14T07:49:22.504Z,504.00
2023-06-14T07:50:22.538Z,500.00
2023-06-14T07:51:22.583Z,496.00
2023-06-14T07:52:23.198Z,508.00
2023-06-14T07:53:22.706Z,491.00
2023-06-14T07:54:22.784Z,497.00
2023-06-14T07:55:22.841Z,500.00
2023-06-14T07:56:22.890Z,495.00
2023-06-14T07:57:23.161Z,501.00
2023-06-14T07:58:22.980Z,504.00
2023-06-14T07:59:23.019Z,505.00
2023-06-14T08:00:23.072Z,505.00
2023-06-14T08:01:23.116Z,501.00
2023-06-14T08:02:23.205Z,502.00
2023-06-14T08:03:23.292Z,508.00
2023-06-14T08:04:23.265Z,510.00
2023-06-14T08:05:23.330Z,516.00
2023-06-14T08:06:23.418Z,549.00
2023-06-14T08:07:23.468Z,519.00
2023-06-14T08:08:23.488Z,578.00
2023-06-14T08:09:23.543Z,634.00
2023-06-14T08:10:23.609Z,660.00
2023-06-14T08:11:23.657Z,723.00
2023-06-14T08:12:24.192Z,823.00
2023-06-14T08:13:23.740Z,838.00
2023-06-14T08:14:23.749Z,826.00
2023-06-14T08:15:23.767Z,785.00
2023-06-14T08:16:23.855Z,719.00
2023-06-14T08:17:24.202Z,664.00
2023-06-14T08:18:23.819Z,706.00
2023-06-14T08:19:23.824Z,757.00
2023-06-14T08:20:23.831Z,865.00
2023-06-14T08:21:23.848Z,887.00
2023-06-14T08:22:24.156Z,770.00
2023-06-14T08:23:23.862Z,826.00
2023-06-14T08:24:24.007Z,785.00
2023-06-14T08:25:23.881Z,778.00
2023-06-14T08:26:23.865Z,706.00
2023-06-14T08:27:23.886Z,663.00
2023-06-14T08:28:23.890Z,640.00
2023-06-14T08:29:23.869Z,583.00
2023-06-14T08:30:23.926Z,584.00
2023-06-14T08:31:23.861Z,580.00
2023-06-14T08:32:23.896Z,597.00
2023-06-14T08:33:23.955Z,574.00
2023-06-14T08:34:23.901Z,577.00
2023-06-14T08:35:24.018Z,556.00
2023-06-14T08:36:23.950Z,512.00
2023-06-14T08:37:24.170Z,514.00
2023-06-14T08:38:23.879Z,558.00
2023-06-14T08:39:23.904Z,526.00
2023-06-14T08:40:23.903Z,568.00
2023-06-14T08:41:23.892Z,510.00
2023-06-14T08:42:31.574Z,512.00
2023-06-14T08:43:24.889Z,512.00
2023-06-14T08:44:23.885Z,512.00
2023-06-14T08:45:26.656Z,528.00
2023-06-14T08:46:23.870Z,515.00
2023-06-14T08:47:23.889Z,533.00
2023-06-14T08:48:23.858Z,573.00
2023-06-14T08:49:23.854Z,619.00
2023-06-14T08:50:28.387Z,832.00
2023-06-14T08:51:24.834Z,519.00
2023-06-14T08:52:24.173Z,550.00
2023-06-14T08:53:23.829Z,615.00
2023-06-14T08:54:23.808Z,774.00
2023-06-14T08:55:23.826Z,1066.00
2023-06-14T08:56:23.820Z,1200.00
2023-06-14T08:57:23.788Z,1257.00
2023-06-14T08:58:23.814Z,1243.00
2023-06-14T08:59:23.792Z,1441.00
2023-06-14T09:00:23.794Z,1615.00
2023-06-14T09:01:23.831Z,1583.00
2023-06-14T09:02:23.822Z,1791.00
2023-06-14T09:03:23.792Z,1770.00
2023-06-14T09:04:23.743Z,1754.00
2023-06-14T09:05:23.746Z,1604.00
2023-06-14T09:06:23.757Z,1509.00
2023-06-14T09:07:23.721Z,1604.00
2023-06-14T09:08:23.736Z,1644.00
2023-06-14T09:09:23.749Z,1697.00
2023-06-14T09:10:24.019Z,1762.00
2023-06-14T09:11:23.762Z,1758.00
2023-06-14T09:12:24.168Z,1802.00
2023-06-14T09:13:23.746Z,1734.00
2023-06-14T09:14:23.754Z,1674.00
2023-06-14T09:15:23.759Z,1530.00
2023-06-14T09:16:23.808Z,1222.00
2023-06-14T09:17:24.166Z,1137.00
2023-06-14T09:18:23.776Z,1079.00
2023-06-14T09:19:23.799Z,947.00
2023-06-14T09:20:23.841Z,985.00
2023-06-14T09:21:23.838Z,825.00
2023-06-14T09:22:23.868Z,727.00
2023-06-14T09:23:23.928Z,713.00
2023-06-14T09:24:23.989Z,675.00
2023-06-14T09:25:37.978Z,579.00
2023-06-14T09:26:24.960Z,535.00
2023-06-14T09:27:24.195Z,518.00
2023-06-14T09:28:23.984Z,452.00
2023-06-14T09:29:23.973Z,433.00
2023-06-14T09:30:23.949Z,424.00
2023-06-14T09:31:24.011Z,474.00
2023-06-14T09:32:24.237Z,485.00
2023-06-14T09:33:23.953Z,500.00
2023-06-14T09:34:23.931Z,499.00
2023-06-14T09:35:23.923Z,498.00
2023-06-14T09:36:23.980Z,487.00
2023-06-14T09:37:23.953Z,500.00
2023-06-14T09:38:23.994Z,505.00
2023-06-14T09:39:24.065Z,507.00
2023-06-14T09:40:24.118Z,492.00
2023-06-14T09:41:24.175Z,511.00
2023-06-14T09:42:24.728Z,496.00
2023-06-14T09:43:24.283Z,521.00
2023-06-14T09:44:24.349Z,537.00
2023-06-14T09:45:24.404Z,525.00
2023-06-14T09:46:24.443Z,499.00
2023-06-14T09:47:24.704Z,503.00
2023-06-14T09:48:24.655Z,521.00
2023-06-14T09:49:24.710Z,517.00
2023-06-14T09:50:24.660Z,490.00
2023-06-14T09:51:24.701Z,524.00
2023-06-14T09:52:24.790Z,514.00
2023-06-14T09:53:24.802Z,521.00
2023-06-14T09:54:24.871Z,526.00
2023-06-14T09:55:24.938Z,497.00
2023-06-14T09:56:25.000Z,515.00
2023-06-14T09:57:25.180Z,531.00
2023-06-14T09:58:25.091Z,522.00
2023-06-14T09:59:25.153Z,505.00
2023-06-14T10:00:25.183Z,506.00
2023-06-14T10:01:25.296Z,515.00
2023-06-14T10:02:25.310Z,503.00
2023-06-14T10:03:25.658Z,500.00
2023-06-14T10:04:25.327Z,497.00
2023-06-14T10:05:25.379Z,533.00
2023-06-14T10:06:25.368Z,582.00
2023-06-14T10:07:25.369Z,535.00
2023-06-14T10:08:25.401Z,531.00
2023-06-14T10:09:25.446Z,520.00
2023-06-14T10:10:25.453Z,574.00
2023-06-14T10:11:25.481Z,535.00
2023-06-14T10:12:25.686Z,524.00
2023-06-14T10:13:25.539Z,535.00
2023-06-14T10:14:25.532Z,515.00
2023-06-14T10:15:25.525Z,497.00
2023-06-14T10:16:25.585Z,526.00
2023-06-14T10:17:25.705Z,500.00
2023-06-14T10:18:25.603Z,503.00
2023-06-14T10:19:25.649Z,634.00
2023-06-14T10:20:25.666Z,676.00
2023-06-14T10:21:27.613Z,789.00
2023-06-14T10:22:26.167Z,1122.00
2023-06-14T10:23:25.864Z,1087.00
2023-06-14T10:24:25.945Z,1392.00
2023-06-14T10:25:25.975Z,1444.00
2023-06-14T10:26:26.086Z,1670.00
2023-06-14T10:27:26.237Z,1771.00
2023-06-14T10:28:26.179Z,1773.00
2023-06-14T10:29:26.193Z,2061.00
2023-06-14T10:30:26.212Z,2168.00
2023-06-14T10:31:26.305Z,2192.00
2023-06-14T10:32:26.410Z,2227.00
2023-06-14T10:33:26.364Z,2392.00
2023-06-14T10:34:26.431Z,2480.00
2023-06-14T10:35:26.476Z,2599.00
2023-06-14T10:36:26.496Z,2432.00
2023-06-14T10:37:26.550Z,2621.00
2023-06-14T10:38:26.577Z,2741.00
2023-06-14T10:39:26.648Z,2970.00
2023-06-14T10:40:26.677Z,3015.00
2023-06-14T10:41:26.698Z,3196.00
2023-06-14T10:42:26.749Z,3262.00
2023-06-14T10:43:26.807Z,3318.00
2023-06-14T10:44:26.831Z,3426.00
2023-06-14T10:45:26.902Z,3569.00
2023-06-14T10:46:27.039Z,3712.00
2023-06-14T10:47:27.035Z,3800.00
2023-06-14T10:48:26.989Z,3869.00
2023-06-14T10:49:27.014Z,4001.00
2023-06-14T10:50:27.058Z,4090.00
2023-06-14T10:51:27.098Z,4130.00
2023-06-14T10:52:27.143Z,4071.00
2023-06-14T10:53:27.304Z,4076.00
2023-06-14T10:54:27.232Z,4180.00
2023-06-14T10:55:27.283Z,4208.00
2023-06-14T10:56:27.315Z,4194.00
2023-06-14T10:57:27.667Z,4258.00
2023-06-14T10:58:27.361Z,4041.00
2023-06-14T10:59:27.410Z,3797.00
2023-06-14T11:00:28.012Z,3602.00
2023-06-14T11:01:27.524Z,3594.00
2023-06-14T11:02:27.662Z,3618.00
2023-06-14T11:03:27.566Z,3682.00
2023-06-14T11:04:27.544Z,3633.00
2023-06-14T11:05:27.597Z,3652.00
2023-06-14T11:06:27.599Z,3768.00
2023-06-14T11:07:27.632Z,3716.00
2023-06-14T11:08:27.681Z,3704.00
2023-06-14T11:09:27.694Z,3826.00
2023-06-14T11:10:27.759Z,3833.00
2023-06-14T11:11:27.776Z,3921.00
2023-06-14T11:12:28.167Z,3961.00
2023-06-14T11:13:28.413Z,3974.00
2023-06-14T11:14:27.860Z,4150.00
2023-06-14T11:15:27.932Z,4253.00
2023-06-14T11:16:27.941Z,4323.00
2023-06-14T11:17:28.205Z,4306.00
2023-06-14T11:18:27.957Z,4289.00
2023-06-14T11:19:27.959Z,4277.00
2023-06-14T11:20:28.895Z,4317.00
2023-06-14T11:21:28.179Z,4378.00
2023-06-14T11:22:28.181Z,4439.00
2023-06-14T11:23:28.045Z,4412.00
2023-06-14T11:24:28.183Z,4484.00
2023-06-14T11:25:28.116Z,4551.00
2023-06-14T11:26:28.112Z,4590.00
2023-06-14T11:27:28.134Z,4602.00
2023-06-14T11:28:28.174Z,4651.00
2023-06-14T11:29:28.194Z,4731.00
2023-06-14T11:30:28.224Z,4727.00
2023-06-14T11:31:28.325Z,4753.00
2023-06-14T11:32:28.283Z,4754.00
2023-06-14T11:33:28.276Z,4750.00
2023-06-14T11:34:28.301Z,4745.00
2023-06-14T11:35:28.319Z,4734.00
2023-06-14T11:36:28.323Z,4749.00
2023-06-14T11:37:28.359Z,4786.00
2023-06-14T11:38:28.376Z,4777.00
2023-06-14T11:39:28.369Z,4789.00
2023-06-14T11:40:28.393Z,4788.00
2023-06-14T11:41:28.417Z,4801.00
2023-06-14T11:42:28.447Z,4856.00
2023-06-14T11:43:28.468Z,4863.00
2023-06-14T11:44:28.479Z,4858.00
2023-06-14T11:45:28.484Z,4873.00
2023-06-14T11:46:28.525Z,4872.00
2023-06-14T11:47:28.594Z,4849.00
2023-06-14T11:48:28.536Z,4846.00
2023-06-14T11:49:28.569Z,4874.00
2023-06-14T11:50:28.613Z,4901.00
2023-06-14T11:51:28.612Z,4935.00
2023-06-14T11:52:28.638Z,4993.00
2023-06-14T11:53:28.640Z,5010.00
2023-06-14T11:54:28.661Z,5019.00
2023-06-14T11:55:28.693Z,4991.00
2023-06-14T11:56:28.690Z,4957.00
2023-06-14T11:57:28.910Z,4989.00
2023-06-14T11:58:28.741Z,5020.00
2023-06-14T11:59:28.765Z,4990.00
2023-06-14T12:00:28.810Z,4990.00
2023-06-14T12:01:28.817Z,4975.00
2023-06-14T12:02:28.873Z,4987.00
2023-06-14T12:03:28.911Z,5008.00
2023-06-14T12:04:28.858Z,5075.00
2023-06-14T12:05:28.883Z,5111.00
2023-06-14T12:06:28.877Z,5066.00
2023-06-14T12:07:28.874Z,5051.00
2023-06-14T12:08:28.905Z,5099.00
2023-06-14T12:09:28.903Z,5057.00
2023-06-14T12:10:28.944Z,5024.00
2023-06-14T12:11:28.966Z,5043.00
2023-06-14T12:12:29.185Z,5034.00
2023-06-14T12:13:28.973Z,5020.00